sensor_id;sensor_type;location;lat;lon;timestamp;pressure;altitude;pressure_sealevel;temperature
12918;BMP180;6526;54.312;13.092;2022-09-09T00:09:28;101187.00;;;17.30
12918;BMP180;6526;54.312;13.092;2022-09-09T00:12:18;101182.00;;;17.40
12918;BMP180;6526;54.312;13.092;2022-09-09T00:14:51;101194.00;;;17.50
12918;BMP180;6526;54.312;13.092;2022-09-09T00:20:00;101191.00;;;17.30
12918;BMP180;6526;54.312;13.092;2022-09-09T00:22:29;101189.00;;;17.30
12918;BMP180;6526;54.312;13.092;2022-09-09T00:25:08;101201.00;;;17.40
12918;BMP180;6526;54.312;13.092;2022-09-09T00:27:47;101194.00;;;17.30
12918;BMP180;6526;54.312;13.092;2022-09-09T00:30:18;101191.00;;;17.30
12918;BMP180;6526;54.312;13.092;2022-09-09T00:32:49;101195.00;;;17.30
12918;BMP180;6526;54.312;13.092;2022-09-09T00:35:25;101197.00;;;17.30
12918;BMP180;6526;54.312;13.092;2022-09-09T00:37:56;101192.00;;;17.30
12918;BMP180;6526;54.312;13.092;2022-09-09T00:40:35;101188.00;;;17.20
12918;BMP180;6526;54.312;13.092;2022-09-09T00:43:28;101183.00;;;17.20
12918;BMP180;6526;54.312;13.092;2022-09-09T00:46:37;101195.00;;;17.30
12918;BMP180;6526;54.312;13.092;2022-09-09T00:52:18;101190.00;;;17.20
12918;BMP180;6526;54.312;13.092;2022-09-09T00:54:57;101203.00;;;17.30
12918;BMP180;6526;54.312;13.092;2022-09-09T00:57:29;101206.00;;;17.20
12918;BMP180;6526;54.312;13.092;2022-09-09T01:00:14;101211.00;;;17.10
12918;BMP180;6526;54.312;13.092;2022-09-09T01:07:58;101204.00;;;17.30
12918;BMP180;6526;54.312;13.092;2022-09-09T01:10:51;101210.00;;;17.30
12918;BMP180;6526;54.312;13.092;2022-09-09T01:13:26;101209.00;;;17.30
12918;BMP180;6526;54.312;13.092;2022-09-09T01:15:59;101223.00;;;17.30
12918;BMP180;6526;54.312;13.092;2022-09-09T01:18:39;101227.00;;;17.20
12918;BMP180;6526;54.312;13.092;2022-09-09T01:26:41;101237.00;;;17.30
12918;BMP180;6526;54.312;13.092;2022-09-09T01:29:13;101233.00;;;17.40
12918;BMP180;6526;54.312;13.092;2022-09-09T01:31:43;101231.00;;;17.40
12918;BMP180;6526;54.312;13.092;2022-09-09T01:34:17;101225.00;;;17.50
12918;BMP180;6526;54.312;13.092;2022-09-09T01:39:31;101228.00;;;17.50
12918;BMP180;6526;54.312;13.092;2022-09-09T01:41:58;101233.00;;;17.40
12918;BMP180;6526;54.312;13.092;2022-09-09T01:44:25;101232.00;;;17.50
12918;BMP180;6526;54.312;13.092;2022-09-09T01:46:51;101231.00;;;17.60
12918;BMP180;6526;54.312;13.092;2022-09-09T01:49:18;101214.00;;;17.60
12918;BMP180;6526;54.312;13.092;2022-09-09T01:51:46;101213.00;;;17.60
12918;BMP180;6526;54.312;13.092;2022-09-09T01:54:14;101236.00;;;17.70
12918;BMP180;6526;54.312;13.092;2022-09-09T02:02:10;101233.00;;;17.80
12918;BMP180;6526;54.312;13.092;2022-09-09T02:04:40;101242.00;;;17.90
12918;BMP180;6526;54.312;13.092;2022-09-09T02:10:22;101248.00;;;17.80
12918;BMP180;6526;54.312;13.092;2022-09-09T02:13:03;101246.00;;;17.80
12918;BMP180;6526;54.312;13.092;2022-09-09T02:18:08;101248.00;;;17.80
12918;BMP180;6526;54.312;13.092;2022-09-09T02:20:38;101245.00;;;17.80
12918;BMP180;6526;54.312;13.092;2022-09-09T02:23:06;101246.00;;;17.90
12918;BMP180;6526;54.312;13.092;2022-09-09T02:25:36;101252.00;;;17.90
12918;BMP180;6526;54.312;13.092;2022-09-09T02:28:06;101255.00;;;17.90
12918;BMP180;6526;54.312;13.092;2022-09-09T02:30:34;101245.00;;;17.90
12918;BMP180;6526;54.312;13.092;2022-09-09T02:33:05;101237.00;;;17.90
12918;BMP180;6526;54.312;13.092;2022-09-09T02:35:33;101246.00;;;17.90
12918;BMP180;6526;54.312;13.092;2022-09-09T02:38:07;101248.00;;;17.90
12918;BMP180;6526;54.312;13.092;2022-09-09T02:40:34;101248.00;;;17.90
12918;BMP180;6526;54.312;13.092;2022-09-09T02:43:00;101258.00;;;18.00
12918;BMP180;6526;54.312;13.092;2022-09-09T02:45:31;101257.00;;;17.90
12918;BMP180;6526;54.312;13.092;2022-09-09T02:51:24;101255.00;;;17.90
12918;BMP180;6526;54.312;13.092;2022-09-09T02:56:42;101257.00;;;17.90
12918;BMP180;6526;54.312;13.092;2022-09-09T02:59:11;101255.00;;;17.90
12918;BMP180;6526;54.312;13.092;2022-09-09T03:01:38;101252.00;;;17.90
12918;BMP180;6526;54.312;13.092;2022-09-09T03:04:06;101256.00;;;17.90
12918;BMP180;6526;54.312;13.092;2022-09-09T03:06:32;101253.00;;;17.80
12918;BMP180;6526;54.312;13.092;2022-09-09T03:08:58;101260.00;;;17.80
12918;BMP180;6526;54.312;13.092;2022-09-09T03:11:26;101257.00;;;17.90
12918;BMP180;6526;54.312;13.092;2022-09-09T03:13:53;101257.00;;;17.80
12918;BMP180;6526;54.312;13.092;2022-09-09T03:16:22;101255.00;;;17.80
12918;BMP180;6526;54.312;13.092;2022-09-09T03:18:48;101253.00;;;17.80
12918;BMP180;6526;54.312;13.092;2022-09-09T03:21:15;101253.00;;;17.80
12918;BMP180;6526;54.312;13.092;2022-09-09T03:23:41;101252.00;;;17.90
12918;BMP180;6526;54.312;13.092;2022-09-09T03:26:07;101248.00;;;17.90
12918;BMP180;6526;54.312;13.092;2022-09-09T03:28:34;101263.00;;;17.90
12918;BMP180;6526;54.312;13.092;2022-09-09T03:31:02;101261.00;;;17.80
12918;BMP180;6526;54.312;13.092;2022-09-09T03:33:29;101259.00;;;17.90
12918;BMP180;6526;54.312;13.092;2022-09-09T03:35:55;101276.00;;;17.90
12918;BMP180;6526;54.312;13.092;2022-09-09T03:38:23;101275.00;;;17.90
12918;BMP180;6526;54.312;13.092;2022-09-09T03:40:54;101284.00;;;17.80
12918;BMP180;6526;54.312;13.092;2022-09-09T03:43:21;101274.00;;;17.80
12918;BMP180;6526;54.312;13.092;2022-09-09T03:45:48;101288.00;;;17.80
12918;BMP180;6526;54.312;13.092;2022-09-09T03:48:15;101291.00;;;17.90
12918;BMP180;6526;54.312;13.092;2022-09-09T03:50:49;101291.00;;;17.80
12918;BMP180;6526;54.312;13.092;2022-09-09T03:53:16;101292.00;;;17.90
12918;BMP180;6526;54.312;13.092;2022-09-09T03:55:51;101288.00;;;17.80
12918;BMP180;6526;54.312;13.092;2022-09-09T03:58:21;101294.00;;;17.90
12918;BMP180;6526;54.312;13.092;2022-09-09T04:00:55;101297.00;;;17.90
12918;BMP180;6526;54.312;13.092;2022-09-09T04:03:22;101303.00;;;17.90
12918;BMP180;6526;54.312;13.092;2022-09-09T04:05:53;101297.00;;;17.90
12918;BMP180;6526;54.312;13.092;2022-09-09T04:08:21;101303.00;;;17.90
12918;BMP180;6526;54.312;13.092;2022-09-09T04:10:50;101306.00;;;17.90
12918;BMP180;6526;54.312;13.092;2022-09-09T04:13:18;101313.00;;;18.00
12918;BMP180;6526;54.312;13.092;2022-09-09T04:15:52;101306.00;;;18.00
12918;BMP180;6526;54.312;13.092;2022-09-09T04:18:19;101299.00;;;18.10
12918;BMP180;6526;54.312;13.092;2022-09-09T04:20:50;101296.00;;;18.00
12918;BMP180;6526;54.312;13.092;2022-09-09T04:23:16;101292.00;;;18.00
12918;BMP180;6526;54.312;13.092;2022-09-09T04:25:45;101303.00;;;18.00
12918;BMP180;6526;54.312;13.092;2022-09-09T04:28:13;101302.00;;;18.00
12918;BMP180;6526;54.312;13.092;2022-09-09T04:30:39;101309.00;;;18.00
12918;BMP180;6526;54.312;13.092;2022-09-09T04:33:06;101304.00;;;18.00
12918;BMP180;6526;54.312;13.092;2022-09-09T04:35:32;101303.00;;;17.90
12918;BMP180;6526;54.312;13.092;2022-09-09T04:37:59;101309.00;;;18.00
12918;BMP180;6526;54.312;13.092;2022-09-09T04:40:25;101314.00;;;18.00
12918;BMP180;6526;54.312;13.092;2022-09-09T04:42:51;101311.00;;;18.00
12918;BMP180;6526;54.312;13.092;2022-09-09T04:45:17;101318.00;;;18.00
12918;BMP180;6526;54.312;13.092;2022-09-09T04:47:44;101315.00;;;18.10
12918;BMP180;6526;54.312;13.092;2022-09-09T04:50:10;101319.00;;;18.10
12918;BMP180;6526;54.312;13.092;2022-09-09T04:52:36;101321.00;;;18.10
12918;BMP180;6526;54.312;13.092;2022-09-09T04:55:03;101327.00;;;18.10
12918;BMP180;6526;54.312;13.092;2022-09-09T04:57:29;101329.00;;;18.10
12918;BMP180;6526;54.312;13.092;2022-09-09T04:59:59;101327.00;;;18.10
12918;BMP180;6526;54.312;13.092;2022-09-09T05:02:26;101339.00;;;18.10
12918;BMP180;6526;54.312;13.092;2022-09-09T05:04:52;101329.00;;;18.00
12918;BMP180;6526;54.312;13.092;2022-09-09T05:07:18;101337.00;;;18.10
12918;BMP180;6526;54.312;13.092;2022-09-09T05:09:44;101333.00;;;18.10
12918;BMP180;6526;54.312;13.092;2022-09-09T05:12:11;101337.00;;;18.20
12918;BMP180;6526;54.312;13.092;2022-09-09T05:14:37;101334.00;;;18.20
12918;BMP180;6526;54.312;13.092;2022-09-09T05:17:03;101329.00;;;18.20
12918;BMP180;6526;54.312;13.092;2022-09-09T05:19:29;101335.00;;;18.20
12918;BMP180;6526;54.312;13.092;2022-09-09T05:21:57;101331.00;;;18.20
12918;BMP180;6526;54.312;13.092;2022-09-09T05:24:23;101345.00;;;18.20
12918;BMP180;6526;54.312;13.092;2022-09-09T05:26:49;101349.00;;;18.20
12918;BMP180;6526;54.312;13.092;2022-09-09T05:29:15;101361.00;;;18.20
12918;BMP180;6526;54.312;13.092;2022-09-09T05:31:45;101358.00;;;18.20
12918;BMP180;6526;54.312;13.092;2022-09-09T05:34:12;101357.00;;;18.20
12918;BMP180;6526;54.312;13.092;2022-09-09T05:36:38;101344.00;;;18.00
12918;BMP180;6526;54.312;13.092;2022-09-09T05:39:05;101349.00;;;18.10
12918;BMP180;6526;54.312;13.092;2022-09-09T05:41:31;101350.00;;;18.10
12918;BMP180;6526;54.312;13.092;2022-09-09T05:43:57;101347.00;;;18.30
12918;BMP180;6526;54.312;13.092;2022-09-09T05:46:25;101344.00;;;18.40
12918;BMP180;6526;54.312;13.092;2022-09-09T05:48:52;101355.00;;;18.40
12918;BMP180;6526;54.312;13.092;2022-09-09T05:51:22;101360.00;;;18.30
12918;BMP180;6526;54.312;13.092;2022-09-09T05:53:49;101356.00;;;18.30
12918;BMP180;6526;54.312;13.092;2022-09-09T05:56:20;101360.00;;;18.30
12918;BMP180;6526;54.312;13.092;2022-09-09T05:58:48;101364.00;;;18.40
12918;BMP180;6526;54.312;13.092;2022-09-09T06:01:18;101362.00;;;18.30
12918;BMP180;6526;54.312;13.092;2022-09-09T06:03:46;101369.00;;;18.30
12918;BMP180;6526;54.312;13.092;2022-09-09T06:06:15;101371.00;;;18.30
12918;BMP180;6526;54.312;13.092;2022-09-09T06:08:44;101358.00;;;18.30
12918;BMP180;6526;54.312;13.092;2022-09-09T06:11:18;101369.00;;;18.30
12918;BMP180;6526;54.312;13.092;2022-09-09T06:13:45;101378.00;;;18.20
12918;BMP180;6526;54.312;13.092;2022-09-09T06:16:16;101377.00;;;18.30
12918;BMP180;6526;54.312;13.092;2022-09-09T06:18:43;101376.00;;;18.40
12918;BMP180;6526;54.312;13.092;2022-09-09T06:21:20;101386.00;;;18.30
12918;BMP180;6526;54.312;13.092;2022-09-09T06:23:47;101387.00;;;18.30
12918;BMP180;6526;54.312;13.092;2022-09-09T06:26:16;101392.00;;;18.30
12918;BMP180;6526;54.312;13.092;2022-09-09T06:28:49;101388.00;;;18.30
12918;BMP180;6526;54.312;13.092;2022-09-09T06:31:17;101389.00;;;18.30
12918;BMP180;6526;54.312;13.092;2022-09-09T06:33:47;101405.00;;;18.40
12918;BMP180;6526;54.312;13.092;2022-09-09T06:36:18;101408.00;;;18.50
12918;BMP180;6526;54.312;13.092;2022-09-09T06:38:44;101397.00;;;18.40
12918;BMP180;6526;54.312;13.092;2022-09-09T06:41:13;101398.00;;;18.40
12918;BMP180;6526;54.312;13.092;2022-09-09T06:43:39;101394.00;;;18.40
12918;BMP180;6526;54.312;13.092;2022-09-09T06:46:08;101403.00;;;18.60
12918;BMP180;6526;54.312;13.092;2022-09-09T06:48:35;101394.00;;;18.60
12918;BMP180;6526;54.312;13.092;2022-09-09T06:51:10;101397.00;;;18.60
12918;BMP180;6526;54.312;13.092;2022-09-09T06:53:41;101392.00;;;18.50
12918;BMP180;6526;54.312;13.092;2022-09-09T06:58:36;101405.00;;;18.30
12918;BMP180;6526;54.312;13.092;2022-09-09T07:01:05;101407.00;;;18.40
12918;BMP180;6526;54.312;13.092;2022-09-09T07:03:31;101395.00;;;18.40
12918;BMP180;6526;54.312;13.092;2022-09-09T07:05:57;101406.00;;;18.50
12918;BMP180;6526;54.312;13.092;2022-09-09T07:08:24;101411.00;;;18.40
12918;BMP180;6526;54.312;13.092;2022-09-09T07:10:51;101408.00;;;18.40
12918;BMP180;6526;54.312;13.092;2022-09-09T07:13:23;101413.00;;;18.60
12918;BMP180;6526;54.312;13.092;2022-09-09T07:15:51;101428.00;;;18.60
12918;BMP180;6526;54.312;13.092;2022-09-09T07:18:17;101429.00;;;18.50
12918;BMP180;6526;54.312;13.092;2022-09-09T07:20:52;101429.00;;;18.60
12918;BMP180;6526;54.312;13.092;2022-09-09T07:23:18;101432.00;;;18.60
12918;BMP180;6526;54.312;13.092;2022-09-09T07:25:47;101437.00;;;18.50
12918;BMP180;6526;54.312;13.092;2022-09-09T07:28:14;101448.00;;;18.70
12918;BMP180;6526;54.312;13.092;2022-09-09T07:30:40;101446.00;;;18.80
12918;BMP180;6526;54.312;13.092;2022-09-09T07:33:06;101432.00;;;18.90
12918;BMP180;6526;54.312;13.092;2022-09-09T07:35:32;101430.00;;;18.80
12918;BMP180;6526;54.312;13.092;2022-09-09T07:38:00;101432.00;;;18.90
12918;BMP180;6526;54.312;13.092;2022-09-09T07:40:26;101440.00;;;18.80
12918;BMP180;6526;54.312;13.092;2022-09-09T07:42:52;101443.00;;;18.90
12918;BMP180;6526;54.312;13.092;2022-09-09T07:45:19;101453.00;;;18.80
12918;BMP180;6526;54.312;13.092;2022-09-09T07:47:45;101444.00;;;18.80
12918;BMP180;6526;54.312;13.092;2022-09-09T07:50:11;101440.00;;;19.00
12918;BMP180;6526;54.312;13.092;2022-09-09T07:52:37;101449.00;;;19.10
12918;BMP180;6526;54.312;13.092;2022-09-09T07:55:04;101449.00;;;18.90
12918;BMP180;6526;54.312;13.092;2022-09-09T07:57:30;101457.00;;;18.90
12918;BMP180;6526;54.312;13.092;2022-09-09T07:59:57;101448.00;;;18.90
12918;BMP180;6526;54.312;13.092;2022-09-09T08:02:24;101451.00;;;18.80
12918;BMP180;6526;54.312;13.092;2022-09-09T08:04:51;101447.00;;;18.70
12918;BMP180;6526;54.312;13.092;2022-09-09T08:07:18;101447.00;;;18.90
12918;BMP180;6526;54.312;13.092;2022-09-09T08:09:44;101459.00;;;19.20
12918;BMP180;6526;54.312;13.092;2022-09-09T08:12:10;101454.00;;;19.20
12918;BMP180;6526;54.312;13.092;2022-09-09T08:14:36;101452.00;;;19.10
12918;BMP180;6526;54.312;13.092;2022-09-09T08:17:02;101451.00;;;19.20
12918;BMP180;6526;54.312;13.092;2022-09-09T08:19:28;101454.00;;;19.10
12918;BMP180;6526;54.312;13.092;2022-09-09T08:21:55;101450.00;;;19.20
12918;BMP180;6526;54.312;13.092;2022-09-09T08:24:22;101450.00;;;19.20
12918;BMP180;6526;54.312;13.092;2022-09-09T08:26:49;101457.00;;;19.30
12918;BMP180;6526;54.312;13.092;2022-09-09T08:29:16;101456.00;;;19.40
12918;BMP180;6526;54.312;13.092;2022-09-09T08:31:47;101466.00;;;19.50
12918;BMP180;6526;54.312;13.092;2022-09-09T08:34:13;101464.00;;;19.60
12918;BMP180;6526;54.312;13.092;2022-09-09T08:36:45;101452.00;;;19.60
12918;BMP180;6526;54.312;13.092;2022-09-09T08:39:13;101458.00;;;19.80
12918;BMP180;6526;54.312;13.092;2022-09-09T08:44:32;101458.00;;;19.70
12918;BMP180;6526;54.312;13.092;2022-09-09T08:49:44;101468.00;;;19.80
12918;BMP180;6526;54.312;13.092;2022-09-09T08:52:27;101460.00;;;19.60
12918;BMP180;6526;54.312;13.092;2022-09-09T08:55:01;101468.00;;;19.70
12918;BMP180;6526;54.312;13.092;2022-09-09T08:57:31;101466.00;;;19.90
12918;BMP180;6526;54.312;13.092;2022-09-09T08:59:58;101469.00;;;20.00
12918;BMP180;6526;54.312;13.092;2022-09-09T09:02:34;101471.00;;;19.90
12918;BMP180;6526;54.312;13.092;2022-09-09T09:08:06;101479.00;;;20.10
12918;BMP180;6526;54.312;13.092;2022-09-09T09:13:15;101477.00;;;20.10
12918;BMP180;6526;54.312;13.092;2022-09-09T09:15:44;101477.00;;;20.10
12918;BMP180;6526;54.312;13.092;2022-09-09T09:18:13;101488.00;;;20.10
12918;BMP180;6526;54.312;13.092;2022-09-09T09:23:25;101466.00;;;19.90
12918;BMP180;6526;54.312;13.092;2022-09-09T09:25:58;101475.00;;;20.20
12918;BMP180;6526;54.312;13.092;2022-09-09T09:28:30;101481.00;;;20.40
12918;BMP180;6526;54.312;13.092;2022-09-09T09:31:04;101477.00;;;20.50
12918;BMP180;6526;54.312;13.092;2022-09-09T09:36:07;101480.00;;;20.50
12918;BMP180;6526;54.312;13.092;2022-09-09T09:38:35;101486.00;;;20.60
12918;BMP180;6526;54.312;13.092;2022-09-09T09:41:01;101487.00;;;20.40
12918;BMP180;6526;54.312;13.092;2022-09-09T09:45:55;101485.00;;;20.40
12918;BMP180;6526;54.312;13.092;2022-09-09T09:48:24;101489.00;;;20.40
12918;BMP180;6526;54.312;13.092;2022-09-09T09:50:59;101492.00;;;20.40
12918;BMP180;6526;54.312;13.092;2022-09-09T09:53:27;101494.00;;;20.40
12918;BMP180;6526;54.312;13.092;2022-09-09T09:56:26;101502.00;;;20.40
12918;BMP180;6526;54.312;13.092;2022-09-09T09:58:54;101493.00;;;20.50
12918;BMP180;6526;54.312;13.092;2022-09-09T10:03:57;101504.00;;;20.70
12918;BMP180;6526;54.312;13.092;2022-09-09T10:06:31;101509.00;;;20.60
12918;BMP180;6526;54.312;13.092;2022-09-09T10:08:58;101505.00;;;20.60
12918;BMP180;6526;54.312;13.092;2022-09-09T10:14:20;101514.00;;;20.70
12918;BMP180;6526;54.312;13.092;2022-09-09T10:19:31;101514.00;;;20.60
12918;BMP180;6526;54.312;13.092;2022-09-09T10:25:12;101514.00;;;20.80
12918;BMP180;6526;54.312;13.092;2022-09-09T10:31:02;101503.00;;;21.10
12918;BMP180;6526;54.312;13.092;2022-09-09T10:33:59;101488.00;;;21.20
12918;BMP180;6526;54.312;13.092;2022-09-09T10:36:30;101497.00;;;21.30
12918;BMP180;6526;54.312;13.092;2022-09-09T10:39:03;101500.00;;;21.20
12918;BMP180;6526;54.312;13.092;2022-09-09T10:41:44;101498.00;;;21.20
12918;BMP180;6526;54.312;13.092;2022-09-09T10:50:35;101508.00;;;21.70
12918;BMP180;6526;54.312;13.092;2022-09-09T10:53:24;101500.00;;;21.70
12918;BMP180;6526;54.312;13.092;2022-09-09T10:56:04;101495.00;;;21.70
12918;BMP180;6526;54.312;13.092;2022-09-09T10:58:40;101492.00;;;21.90
12918;BMP180;6526;54.312;13.092;2022-09-09T11:01:24;101501.00;;;21.90
12918;BMP180;6526;54.312;13.092;2022-09-09T11:03:56;101510.00;;;22.30
12918;BMP180;6526;54.312;13.092;2022-09-09T11:06:29;101503.00;;;22.60
12918;BMP180;6526;54.312;13.092;2022-09-09T11:08:57;101502.00;;;22.90
12918;BMP180;6526;54.312;13.092;2022-09-09T11:11:42;101503.00;;;23.00
12918;BMP180;6526;54.312;13.092;2022-09-09T11:17:33;101498.00;;;23.20
12918;BMP180;6526;54.312;13.092;2022-09-09T11:20:00;101497.00;;;23.40
12918;BMP180;6526;54.312;13.092;2022-09-09T11:25:29;101505.00;;;23.40
12918;BMP180;6526;54.312;13.092;2022-09-09T11:28:04;101517.00;;;23.40
12918;BMP180;6526;54.312;13.092;2022-09-09T11:30:54;101506.00;;;23.50
12918;BMP180;6526;54.312;13.092;2022-09-09T11:33:31;101502.00;;;23.70
12918;BMP180;6526;54.312;13.092;2022-09-09T11:41:37;101516.00;;;24.20
12918;BMP180;6526;54.312;13.092;2022-09-09T11:44:28;101507.00;;;24.20
12918;BMP180;6526;54.312;13.092;2022-09-09T11:46:55;101524.00;;;24.60
12918;BMP180;6526;54.312;13.092;2022-09-09T11:49:41;101523.00;;;24.20
12918;BMP180;6526;54.312;13.092;2022-09-09T11:52:22;101528.00;;;24.20
12918;BMP180;6526;54.312;13.092;2022-09-09T11:54:49;101522.00;;;24.30
12918;BMP180;6526;54.312;13.092;2022-09-09T11:57:31;101531.00;;;24.50
12918;BMP180;6526;54.312;13.092;2022-09-09T11:59:59;101524.00;;;24.20
12918;BMP180;6526;54.312;13.092;2022-09-09T12:02:27;101526.00;;;24.30
12918;BMP180;6526;54.312;13.092;2022-09-09T12:07:33;101526.00;;;23.80
12918;BMP180;6526;54.312;13.092;2022-09-09T12:10:05;101525.00;;;23.70
12918;BMP180;6526;54.312;13.092;2022-09-09T12:12:43;101521.00;;;23.80
12918;BMP180;6526;54.312;13.092;2022-09-09T12:20:22;101511.00;;;24.00
12918;BMP180;6526;54.312;13.092;2022-09-09T12:25:37;101514.00;;;24.10
12918;BMP180;6526;54.312;13.092;2022-09-09T12:28:19;101498.00;;;24.20
12918;BMP180;6526;54.312;13.092;2022-09-09T12:31:03;101504.00;;;24.40
12918;BMP180;6526;54.312;13.092;2022-09-09T12:33:39;101502.00;;;24.50
12918;BMP180;6526;54.312;13.092;2022-09-09T12:36:24;101508.00;;;24.50
12918;BMP180;6526;54.312;13.092;2022-09-09T12:38:51;101513.00;;;24.50
12918;BMP180;6526;54.312;13.092;2022-09-09T12:41:26;101502.00;;;24.50
12918;BMP180;6526;54.312;13.092;2022-09-09T12:44:04;101506.00;;;24.40
12918;BMP180;6526;54.312;13.092;2022-09-09T12:46:35;101508.00;;;24.40
12918;BMP180;6526;54.312;13.092;2022-09-09T12:49:03;101499.00;;;24.40
12918;BMP180;6526;54.312;13.092;2022-09-09T12:51:31;101508.00;;;24.30
12918;BMP180;6526;54.312;13.092;2022-09-09T12:53:59;101494.00;;;24.30
12918;BMP180;6526;54.312;13.092;2022-09-09T12:56:29;101499.00;;;24.20
12918;BMP180;6526;54.312;13.092;2022-09-09T12:58:56;101493.00;;;24.20
12918;BMP180;6526;54.312;13.092;2022-09-09T13:01:32;101500.00;;;24.30
12918;BMP180;6526;54.312;13.092;2022-09-09T13:03:59;101489.00;;;24.50
12918;BMP180;6526;54.312;13.092;2022-09-09T13:06:28;101494.00;;;24.70
12918;BMP180;6526;54.312;13.092;2022-09-09T13:08:56;101492.00;;;24.90
12918;BMP180;6526;54.312;13.092;2022-09-09T13:13:53;101480.00;;;24.90
12918;BMP180;6526;54.312;13.092;2022-09-09T13:16:32;101479.00;;;24.90
12918;BMP180;6526;54.312;13.092;2022-09-09T13:19:09;101486.00;;;24.80
12918;BMP180;6526;54.312;13.092;2022-09-09T13:21:40;101482.00;;;24.70
12918;BMP180;6526;54.312;13.092;2022-09-09T13:27:05;101479.00;;;24.60
12918;BMP180;6526;54.312;13.092;2022-09-09T13:29:52;101477.00;;;24.50
12918;BMP180;6526;54.312;13.092;2022-09-09T13:32:20;101476.00;;;24.40
12918;BMP180;6526;54.312;13.092;2022-09-09T13:35:01;101477.00;;;24.40
12918;BMP180;6526;54.312;13.092;2022-09-09T13:37:36;101478.00;;;24.10
12918;BMP180;6526;54.312;13.092;2022-09-09T13:40:04;101478.00;;;23.80
12918;BMP180;6526;54.312;13.092;2022-09-09T13:42:39;101476.00;;;23.60
12918;BMP180;6526;54.312;13.092;2022-09-09T13:45:21;101474.00;;;23.30
12918;BMP180;6526;54.312;13.092;2022-09-09T13:47:48;101487.00;;;23.20
12918;BMP180;6526;54.312;13.092;2022-09-09T13:50:23;101476.00;;;23.10
12918;BMP180;6526;54.312;13.092;2022-09-09T13:52:51;101487.00;;;23.00
12918;BMP180;6526;54.312;13.092;2022-09-09T13:55:19;101482.00;;;22.90
12918;BMP180;6526;54.312;13.092;2022-09-09T13:57:52;101476.00;;;22.80
12918;BMP180;6526;54.312;13.092;2022-09-09T14:00:18;101470.00;;;22.70
12918;BMP180;6526;54.312;13.092;2022-09-09T14:02:44;101473.00;;;22.80
12918;BMP180;6526;54.312;13.092;2022-09-09T14:05:10;101475.00;;;22.80
12918;BMP180;6526;54.312;13.092;2022-09-09T14:07:38;101477.00;;;22.70
12918;BMP180;6526;54.312;13.092;2022-09-09T14:10:06;101489.00;;;22.70
12918;BMP180;6526;54.312;13.092;2022-09-09T14:12:32;101479.00;;;22.70
12918;BMP180;6526;54.312;13.092;2022-09-09T14:14:58;101481.00;;;22.90
12918;BMP180;6526;54.312;13.092;2022-09-09T14:17:27;101473.00;;;23.10
12918;BMP180;6526;54.312;13.092;2022-09-09T14:19:57;101479.00;;;23.00
12918;BMP180;6526;54.312;13.092;2022-09-09T14:22:23;101480.00;;;22.90
12918;BMP180;6526;54.312;13.092;2022-09-09T14:24:50;101480.00;;;22.80
12918;BMP180;6526;54.312;13.092;2022-09-09T14:27:17;101484.00;;;22.80
12918;BMP180;6526;54.312;13.092;2022-09-09T14:29:44;101480.00;;;22.90
12918;BMP180;6526;54.312;13.092;2022-09-09T14:32:11;101481.00;;;22.80
12918;BMP180;6526;54.312;13.092;2022-09-09T14:34:37;101486.00;;;22.80
12918;BMP180;6526;54.312;13.092;2022-09-09T14:37:04;101491.00;;;22.70
12918;BMP180;6526;54.312;13.092;2022-09-09T14:39:30;101481.00;;;22.70
12918;BMP180;6526;54.312;13.092;2022-09-09T14:41:56;101488.00;;;22.60
12918;BMP180;6526;54.312;13.092;2022-09-09T14:44:22;101479.00;;;22.50
12918;BMP180;6526;54.312;13.092;2022-09-09T14:46:48;101487.00;;;22.60
12918;BMP180;6526;54.312;13.092;2022-09-09T14:49:16;101473.00;;;22.70
12918;BMP180;6526;54.312;13.092;2022-09-09T14:51:42;101478.00;;;22.70
12918;BMP180;6526;54.312;13.092;2022-09-09T14:54:08;101481.00;;;22.70
12918;BMP180;6526;54.312;13.092;2022-09-09T14:56:35;101483.00;;;22.60
12918;BMP180;6526;54.312;13.092;2022-09-09T14:59:01;101471.00;;;22.40
12918;BMP180;6526;54.312;13.092;2022-09-09T15:01:29;101474.00;;;22.30
12918;BMP180;6526;54.312;13.092;2022-09-09T15:04:01;101469.00;;;22.20
12918;BMP180;6526;54.312;13.092;2022-09-09T15:06:30;101468.00;;;22.10
12918;BMP180;6526;54.312;13.092;2022-09-09T15:08:56;101471.00;;;21.90
12918;BMP180;6526;54.312;13.092;2022-09-09T15:11:35;101481.00;;;21.90
12918;BMP180;6526;54.312;13.092;2022-09-09T15:14:04;101476.00;;;22.00
12918;BMP180;6526;54.312;13.092;2022-09-09T15:16:31;101468.00;;;21.90
12918;BMP180;6526;54.312;13.092;2022-09-09T15:18:59;101469.00;;;21.60
12918;BMP180;6526;54.312;13.092;2022-09-09T15:21:28;101468.00;;;21.60
12918;BMP180;6526;54.312;13.092;2022-09-09T15:23:55;101470.00;;;21.50
12918;BMP180;6526;54.312;13.092;2022-09-09T15:26:22;101483.00;;;21.40
12918;BMP180;6526;54.312;13.092;2022-09-09T15:28:49;101474.00;;;21.30
12918;BMP180;6526;54.312;13.092;2022-09-09T15:31:24;101476.00;;;21.30
12918;BMP180;6526;54.312;13.092;2022-09-09T15:33:55;101488.00;;;21.30
12918;BMP180;6526;54.312;13.092;2022-09-09T15:36:32;101492.00;;;21.10
12918;BMP180;6526;54.312;13.092;2022-09-09T15:38:59;101494.00;;;21.20
12918;BMP180;6526;54.312;13.092;2022-09-09T15:41:26;101503.00;;;21.10
12918;BMP180;6526;54.312;13.092;2022-09-09T15:43:53;101493.00;;;21.10
12918;BMP180;6526;54.312;13.092;2022-09-09T15:46:34;101509.00;;;21.10
12918;BMP180;6526;54.312;13.092;2022-09-09T15:49:07;101506.00;;;21.10
12918;BMP180;6526;54.312;13.092;2022-09-09T15:51:34;101518.00;;;21.10
12918;BMP180;6526;54.312;13.092;2022-09-09T15:54:01;101504.00;;;21.00
12918;BMP180;6526;54.312;13.092;2022-09-09T15:56:28;101505.00;;;21.00
12918;BMP180;6526;54.312;13.092;2022-09-09T15:58:57;101504.00;;;20.80
12918;BMP180;6526;54.312;13.092;2022-09-09T16:01:23;101509.00;;;20.70
12918;BMP180;6526;54.312;13.092;2022-09-09T16:03:49;101511.00;;;20.70
12918;BMP180;6526;54.312;13.092;2022-09-09T16:06:20;101511.00;;;20.80
12918;BMP180;6526;54.312;13.092;2022-09-09T16:08:51;101503.00;;;20.80